KTRI/TRI METAR and TAF weather

Enter ICAO airport designator
Station Type Date Time Source
KTRI METAR 2024/04/15 07:53 UTC NOAA

KTRI 150753Z 00000KT 10SM CLR 12/07 A3000 RMK AO2 SLP139 T01170067 $


Station Type Date Time Source
KTRI Decoded METAR 2024/04/15 07:53 UTC NOAA

TRI-CITY REGIONAL AIRPORT, TN, United States (KTRI) 36-28N 082-24W 474M
Apr 15, 2024 - 03:53 AM EDT / 2024.04.15 0753 UTC
Wind: Calm:0
Visibility: 10 mile(s):0
Sky conditions: clear
Temperature: 53.1 F (11.7 C)
Dew Point: 44.1 F (6.7 C)
Relative Humidity: 71%
Pressure (altimeter): 30 in. Hg (1015 hPa)
ob: KTRI 150753Z 00000KT 10SM CLR 12/07 A3000 RMK AO2 SLP139 T01170067
cycle: 8

Station Type Date Time Source
KTRI TAF 2024/04/15 06:27 UTC NOAA